createdAt,value
2023-03-05T00:00:27.860Z,5.33
2023-03-05T00:01:27.862Z,5.35
2023-03-05T00:02:27.855Z,5.33
2023-03-05T00:03:27.864Z,5.35
2023-03-05T00:04:27.813Z,5.38
2023-03-05T00:05:27.801Z,5.38
2023-03-05T00:06:27.790Z,5.38
2023-03-05T00:07:27.779Z,5.40
2023-03-05T00:08:27.785Z,5.40
2023-03-05T00:09:27.753Z,5.40
2023-03-05T00:10:27.771Z,5.40
2023-03-05T00:11:27.733Z,5.41
2023-03-05T00:12:27.722Z,5.40
2023-03-05T00:13:27.717Z,5.40
2023-03-05T00:14:27.711Z,5.40
2023-03-05T00:15:27.688Z,5.41
2023-03-05T00:16:27.674Z,5.40
2023-03-05T00:17:27.653Z,5.40
2023-03-05T00:18:27.651Z,5.38
2023-03-05T00:19:27.663Z,5.41
2023-03-05T00:20:28.570Z,5.42
2023-03-05T00:21:27.641Z,5.44
2023-03-05T00:22:27.620Z,5.44
2023-03-05T00:23:27.593Z,5.44
2023-03-05T00:24:27.580Z,5.44
2023-03-05T00:25:27.587Z,5.45
2023-03-05T00:26:27.580Z,5.44
2023-03-05T00:27:27.550Z,5.44
2023-03-05T00:28:27.570Z,5.44
2023-03-05T00:29:27.695Z,5.44
2023-03-05T00:30:27.531Z,5.44
2023-03-05T00:31:27.548Z,5.44
2023-03-05T00:32:27.553Z,5.44
2023-03-05T00:33:27.519Z,5.44
2023-03-05T00:34:27.489Z,5.44
2023-03-05T00:35:27.491Z,5.44
2023-03-05T00:36:27.488Z,5.42
2023-03-05T00:37:27.452Z,5.45
2023-03-05T00:38:27.448Z,5.44
2023-03-05T00:39:27.435Z,5.42
2023-03-05T00:40:27.454Z,5.45
2023-03-05T00:41:27.412Z,5.44
2023-03-05T00:42:27.412Z,5.45
2023-03-05T00:43:27.389Z,5.47
2023-03-05T00:44:27.387Z,5.45
2023-03-05T00:45:27.374Z,5.45
2023-03-05T00:46:27.671Z,5.45
2023-03-05T00:47:27.362Z,5.44
2023-03-05T00:48:27.352Z,5.44
2023-03-05T00:49:27.344Z,5.47
2023-03-05T00:50:27.317Z,5.45
2023-03-05T00:51:27.314Z,5.45
2023-03-05T00:52:27.300Z,5.45
2023-03-05T00:53:27.276Z,5.44
2023-03-05T00:54:27.270Z,5.45
2023-03-05T00:55:27.274Z,5.45
2023-03-05T00:56:27.255Z,5.47
2023-03-05T00:57:27.226Z,5.45
2023-03-05T00:58:27.239Z,5.45
2023-03-05T00:59:27.226Z,5.44
2023-03-05T01:00:27.219Z,5.45
2023-03-05T01:01:27.201Z,5.44
2023-03-05T01:02:27.184Z,5.47
2023-03-05T01:03:27.192Z,5.45
2023-03-05T01:04:27.148Z,5.47
2023-03-05T01:05:27.200Z,5.47
2023-03-05T01:06:27.135Z,5.48
2023-03-05T01:07:27.113Z,5.49
2023-03-05T01:08:27.102Z,5.51
2023-03-05T01:09:27.103Z,5.51
2023-03-05T01:10:27.093Z,5.52
2023-03-05T01:11:27.073Z,5.52
2023-03-05T01:12:27.061Z,5.52
2023-03-05T01:13:27.068Z,5.52
2023-03-05T01:14:27.058Z,5.55
2023-03-05T01:15:27.020Z,5.56
2023-03-05T01:16:27.040Z,5.55
2023-03-05T01:17:27.026Z,5.55
2023-03-05T01:18:26.986Z,5.55
2023-03-05T01:19:26.984Z,5.55
2023-03-05T01:20:26.977Z,5.52
2023-03-05T01:21:26.963Z,5.51
2023-03-05T01:22:26.933Z,5.51
2023-03-05T01:23:26.944Z,5.51
2023-03-05T01:24:26.923Z,5.51
2023-03-05T01:25:26.912Z,5.49
2023-03-05T01:26:26.901Z,5.52
2023-03-05T01:27:26.900Z,5.52
2023-03-05T01:28:26.877Z,5.55
2023-03-05T01:29:26.871Z,5.52
2023-03-05T01:30:26.884Z,5.52
2023-03-05T01:31:26.929Z,5.52
2023-03-05T01:32:26.912Z,5.52
2023-03-05T01:33:26.817Z,5.52
2023-03-05T01:34:26.830Z,5.52
2023-03-05T01:35:26.823Z,5.49
2023-03-05T01:36:26.781Z,5.49
2023-03-05T01:37:26.775Z,5.51
2023-03-05T01:38:26.760Z,5.51
2023-03-05T01:39:26.770Z,5.51
2023-03-05T01:40:26.753Z,5.51
2023-03-05T01:41:26.730Z,5.51
2023-03-05T01:42:26.723Z,5.49
2023-03-05T01:43:26.730Z,5.48
2023-03-05T01:44:26.693Z,5.47
2023-03-05T01:45:26.737Z,5.44
2023-03-05T01:46:26.679Z,5.41
2023-03-05T01:47:26.673Z,5.40
2023-03-05T01:48:26.662Z,5.40
2023-03-05T01:49:26.650Z,5.40
2023-03-05T01:50:26.660Z,5.41
2023-03-05T01:51:26.654Z,5.41
2023-03-05T01:52:26.634Z,5.42
2023-03-05T01:53:26.613Z,5.44
2023-03-05T01:54:26.601Z,5.44
2023-03-05T01:55:26.599Z,5.44
2023-03-05T01:56:26.582Z,5.45
2023-03-05T01:57:26.577Z,5.45
2023-03-05T01:58:26.553Z,5.45
2023-03-05T01:59:26.543Z,5.48
2023-03-05T02:00:26.532Z,5.48
2023-03-05T02:01:26.549Z,5.49
2023-03-05T02:02:26.530Z,5.52
2023-03-05T02:03:26.551Z,5.52
2023-03-05T02:04:26.483Z,5.55
2023-03-05T02:05:26.482Z,5.55
2023-03-05T02:06:26.479Z,5.56
2023-03-05T02:07:26.490Z,5.58
2023-03-05T02:08:26.452Z,5.56
2023-03-05T02:09:26.442Z,5.56
2023-03-05T02:10:26.414Z,5.58
2023-03-05T02:11:26.420Z,5.59
2023-03-05T02:12:26.413Z,5.58
2023-03-05T02:13:26.408Z,5.59
2023-03-05T02:14:26.376Z,5.60
2023-03-05T02:15:26.382Z,5.62
2023-03-05T02:16:26.420Z,5.62
2023-03-05T02:17:26.346Z,5.60
2023-03-05T02:18:26.335Z,5.60
2023-03-05T02:19:26.347Z,5.59
2023-03-05T02:20:26.326Z,5.62
2023-03-05T02:21:26.317Z,5.63
2023-03-05T02:22:26.296Z,5.63
2023-03-05T02:23:26.309Z,5.63
2023-03-05T02:24:26.277Z,5.63
2023-03-05T02:25:26.276Z,5.62
2023-03-05T02:26:26.259Z,5.63
2023-03-05T02:27:26.238Z,5.63
2023-03-05T02:28:26.245Z,5.63
2023-03-05T02:29:26.248Z,5.62
2023-03-05T02:30:26.230Z,5.63
2023-03-05T02:31:26.226Z,5.62
2023-03-05T02:32:26.215Z,5.62
2023-03-05T02:33:26.191Z,5.62
2023-03-05T02:34:26.171Z,5.62
2023-03-05T02:35:26.241Z,5.62
2023-03-05T02:36:26.148Z,5.60
2023-03-05T02:37:26.147Z,5.60
2023-03-05T02:38:26.117Z,5.59
2023-03-05T02:39:26.127Z,5.60
2023-03-05T02:40:26.107Z,5.59
2023-03-05T02:41:26.087Z,5.60
2023-03-05T02:42:26.091Z,5.59
2023-03-05T02:43:26.073Z,5.60
2023-03-05T02:44:26.074Z,5.60
2023-03-05T02:45:26.047Z,5.59
2023-03-05T02:46:26.049Z,5.59
2023-03-05T02:47:26.050Z,5.60
2023-03-05T02:48:26.010Z,5.59
2023-03-05T02:49:26.035Z,5.59
2023-03-05T02:50:26.007Z,5.59
2023-03-05T02:51:25.980Z,5.60
2023-03-05T02:52:25.986Z,5.60
2023-03-05T02:53:25.976Z,5.60
2023-03-05T02:54:25.990Z,5.60
2023-03-05T02:55:25.952Z,5.60
2023-03-05T02:56:25.959Z,5.62
2023-03-05T02:57:25.921Z,5.60
2023-03-05T02:58:25.917Z,5.62
2023-03-05T02:59:25.934Z,5.62
2023-03-05T03:00:25.891Z,5.62
2023-03-05T03:01:25.953Z,5.62
2023-03-05T03:02:25.902Z,5.63
2023-03-05T03:03:25.910Z,5.62
2023-03-05T03:04:25.866Z,5.60
2023-03-05T03:05:25.842Z,5.60
2023-03-05T03:06:25.852Z,5.59
2023-03-05T03:07:25.825Z,5.58
2023-03-05T03:08:25.813Z,5.58
2023-03-05T03:09:25.820Z,5.56
2023-03-05T03:10:25.782Z,5.52
2023-03-05T03:11:25.798Z,5.52
2023-03-05T03:12:25.773Z,5.52
2023-03-05T03:13:25.761Z,5.52
2023-03-05T03:14:25.771Z,5.52
2023-03-05T03:15:25.731Z,5.49
2023-03-05T03:16:25.802Z,5.47
2023-03-05T03:17:25.706Z,5.47
2023-03-05T03:18:25.700Z,5.45
2023-03-05T03:19:25.704Z,5.44
2023-03-05T03:20:25.697Z,5.44
2023-03-05T03:21:25.712Z,5.44
2023-03-05T03:22:25.676Z,5.44
2023-03-05T03:23:25.660Z,5.45
2023-03-05T03:24:25.645Z,5.45
2023-03-05T03:25:25.642Z,5.47
2023-03-05T03:26:25.635Z,5.44
2023-03-05T03:27:25.606Z,5.44
2023-03-05T03:28:25.596Z,5.42
2023-03-05T03:29:25.616Z,5.41
2023-03-05T03:30:25.587Z,5.41
2023-03-05T03:31:25.567Z,5.41
2023-03-05T03:32:25.645Z,5.41
2023-03-05T03:33:25.556Z,5.40
2023-03-05T03:34:25.547Z,5.41
2023-03-05T03:35:25.550Z,5.44
2023-03-05T03:36:25.528Z,5.42
2023-03-05T03:37:25.508Z,5.44
2023-03-05T03:38:25.496Z,5.44
2023-03-05T03:39:25.489Z,5.42
2023-03-05T03:40:25.471Z,5.40
2023-03-05T03:41:25.471Z,5.37
2023-03-05T03:42:25.491Z,5.35
2023-03-05T03:43:25.447Z,5.35
2023-03-05T03:44:25.440Z,5.35
2023-03-05T03:45:25.442Z,5.40
2023-03-05T03:46:25.477Z,5.42
2023-03-05T03:47:25.420Z,5.44
2023-03-05T03:48:25.404Z,5.45
2023-03-05T03:49:25.390Z,5.47
2023-03-05T03:50:25.380Z,5.45
2023-03-05T03:51:25.344Z,5.45
2023-03-05T03:52:25.379Z,5.45
2023-03-05T03:53:25.333Z,5.45
2023-03-05T03:54:25.335Z,5.45
2023-03-05T03:55:25.339Z,5.47
2023-03-05T03:56:25.305Z,5.48
2023-03-05T03:57:25.301Z,5.48
2023-03-05T03:58:25.281Z,5.48
2023-03-05T03:59:25.280Z,5.51
2023-03-05T04:00:25.276Z,5.49
2023-03-05T04:01:25.240Z,5.51
2023-03-05T04:02:25.279Z,5.52
2023-03-05T04:03:25.223Z,5.52
2023-03-05T04:04:25.235Z,5.52
2023-03-05T04:05:25.213Z,5.52
2023-03-05T04:06:25.191Z,5.55
2023-03-05T04:07:25.195Z,5.51
2023-03-05T04:08:25.185Z,5.51
2023-03-05T04:09:25.164Z,5.48
2023-03-05T04:10:25.161Z,5.51
2023-03-05T04:11:25.241Z,5.47
2023-03-05T04:12:25.149Z,5.45
2023-03-05T04:13:25.119Z,5.44
2023-03-05T04:14:25.142Z,5.41
2023-03-05T04:15:25.098Z,5.40
2023-03-05T04:16:25.268Z,5.41
2023-03-05T04:17:25.102Z,5.42
2023-03-05T04:18:25.075Z,5.44
2023-03-05T04:19:25.053Z,5.44
2023-03-05T04:20:25.042Z,5.45
2023-03-05T04:21:25.054Z,5.45
2023-03-05T04:22:25.042Z,5.47
2023-03-05T04:23:25.005Z,5.47
2023-03-05T04:24:25.004Z,5.45
2023-03-05T04:25:25.006Z,5.45
2023-03-05T04:26:25.006Z,5.44
2023-03-05T04:27:24.981Z,5.47
2023-03-05T04:28:24.972Z,5.44
2023-03-05T04:29:24.950Z,5.47
2023-03-05T04:30:24.940Z,5.48
2023-03-05T04:31:25.033Z,5.48
2023-03-05T04:32:24.993Z,5.47
2023-03-05T04:33:24.913Z,5.47
2023-03-05T04:34:24.904Z,5.47
2023-03-05T04:35:24.983Z,5.45
2023-03-05T04:36:24.888Z,5.45
2023-03-05T04:37:24.874Z,5.44
2023-03-05T04:38:24.875Z,5.42
2023-03-05T04:39:24.829Z,5.40
2023-03-05T04:40:24.832Z,5.38
2023-03-05T04:41:24.828Z,5.32
2023-03-05T04:42:24.818Z,5.35
2023-03-05T04:43:24.799Z,5.33
2023-03-05T04:44:24.789Z,5.33
2023-03-05T04:45:24.780Z,5.33
2023-03-05T04:46:24.835Z,5.37
2023-03-05T04:47:24.747Z,5.38
2023-03-05T04:48:24.776Z,5.38
2023-03-05T04:49:24.727Z,5.35
2023-03-05T04:50:24.729Z,5.35
2023-03-05T04:51:24.720Z,5.32
2023-03-05T04:52:24.704Z,5.33
2023-03-05T04:53:24.718Z,5.32
2023-03-05T04:54:24.676Z,5.30
2023-03-05T04:55:24.692Z,5.29
2023-03-05T04:56:24.677Z,5.29
2023-03-05T04:57:24.657Z,5.32
2023-03-05T04:58:24.620Z,5.32
2023-03-05T04:59:24.631Z,5.32
2023-03-05T05:00:24.626Z,5.33
2023-03-05T05:01:24.623Z,5.30
2023-03-05T05:02:24.613Z,5.30
2023-03-05T05:03:24.572Z,5.32
2023-03-05T05:04:24.557Z,5.29
2023-03-05T05:05:24.752Z,5.29
2023-03-05T05:06:24.547Z,5.27
2023-03-05T05:07:24.559Z,5.27
2023-03-05T05:08:24.511Z,5.26
2023-03-05T05:09:24.529Z,5.26
2023-03-05T05:10:24.519Z,5.26
2023-03-05T05:11:24.504Z,5.26
2023-03-05T05:12:24.500Z,5.27
2023-03-05T05:13:24.480Z,5.26
2023-03-05T05:14:24.478Z,5.26
2023-03-05T05:15:24.480Z,5.26
2023-03-05T05:16:24.508Z,5.24
2023-03-05T05:17:24.455Z,5.26
2023-03-05T05:18:24.409Z,5.27
2023-03-05T05:19:24.429Z,5.26
2023-03-05T05:20:24.410Z,5.23
2023-03-05T05:21:24.411Z,5.23
2023-03-05T05:22:24.369Z,5.23
2023-03-05T05:23:24.364Z,5.23
2023-03-05T05:24:24.361Z,5.23
2023-03-05T05:25:24.351Z,5.22
2023-03-05T05:26:24.330Z,5.22
2023-03-05T05:27:24.324Z,5.22
2023-03-05T05:28:24.311Z,5.20
2023-03-05T05:29:24.298Z,5.20
2023-03-05T05:30:24.301Z,5.19
2023-03-05T05:31:24.335Z,5.17
2023-03-05T05:32:24.353Z,5.19
2023-03-05T05:33:24.273Z,5.14
2023-03-05T05:34:24.252Z,5.15
2023-03-05T05:35:24.262Z,5.12
2023-03-05T05:36:24.253Z,5.14
2023-03-05T05:37:24.222Z,5.12
2023-03-05T05:38:24.214Z,5.14
2023-03-05T05:39:24.205Z,5.15
2023-03-05T05:40:24.179Z,5.14
2023-03-05T05:41:24.196Z,5.15
2023-03-05T05:42:24.168Z,5.14
2023-03-05T05:43:24.159Z,5.14
2023-03-05T05:44:24.167Z,5.12
2023-03-05T05:45:24.296Z,5.14
2023-03-05T05:46:24.235Z,5.14
2023-03-05T05:47:24.107Z,5.12
2023-03-05T05:48:24.130Z,5.14
2023-03-05T05:49:24.116Z,5.14
2023-03-05T05:50:24.080Z,5.15
2023-03-05T05:51:24.113Z,5.15
2023-03-05T05:52:24.064Z,5.14
2023-03-05T05:53:24.064Z,5.12
2023-03-05T05:54:24.046Z,5.11
2023-03-05T05:55:24.050Z,5.11
2023-03-05T05:56:24.028Z,5.11
2023-03-05T05:57:24.010Z,5.08
2023-03-05T05:58:24.008Z,5.08
2023-03-05T05:59:24.006Z,5.06
2023-03-05T06:00:23.970Z,5.09
2023-03-05T06:01:23.991Z,5.12
2023-03-05T06:02:24.058Z,5.14
2023-03-05T06:03:23.986Z,5.14
2023-03-05T06:04:23.920Z,5.12
2023-03-05T06:05:24.050Z,5.11
2023-03-05T06:06:23.903Z,5.14
2023-03-05T06:07:23.930Z,5.12
2023-03-05T06:08:23.888Z,5.11
2023-03-05T06:09:23.879Z,5.11
2023-03-05T06:10:23.879Z,5.09
2023-03-05T06:11:23.873Z,5.09
2023-03-05T06:12:23.864Z,5.08
2023-03-05T06:13:23.854Z,5.06
2023-03-05T06:14:23.821Z,5.06
2023-03-05T06:15:23.823Z,5.06
2023-03-05T06:16:23.916Z,5.06
2023-03-05T06:17:30.467Z,5.06
2023-03-05T06:18:24.799Z,5.11
2023-03-05T06:19:23.783Z,5.11
2023-03-05T06:20:23.776Z,5.08
2023-03-05T06:21:23.741Z,5.08
2023-03-05T06:22:23.751Z,5.08
2023-03-05T06:23:23.722Z,5.08
2023-03-05T06:24:23.734Z,5.09
2023-03-05T06:25:23.698Z,5.08
2023-03-05T06:26:23.693Z,5.08
2023-03-05T06:27:23.700Z,5.06
2023-03-05T06:28:23.664Z,5.09
2023-03-05T06:29:23.677Z,5.09
2023-03-05T06:30:23.660Z,5.11
2023-03-05T06:31:23.655Z,5.09
2023-03-05T06:32:23.632Z,5.09
2023-03-05T06:33:23.614Z,5.09
2023-03-05T06:34:23.614Z,5.08
2023-03-05T06:35:23.655Z,5.09
2023-03-05T06:36:23.593Z,5.09
2023-03-05T06:37:23.579Z,5.11
2023-03-05T06:38:23.562Z,5.12
2023-03-05T06:39:23.562Z,5.12
2023-03-05T06:40:23.542Z,5.15
2023-03-05T06:41:23.556Z,5.14
2023-03-05T06:42:23.533Z,5.12
2023-03-05T06:43:23.522Z,5.11
2023-03-05T06:44:23.521Z,5.12
2023-03-05T06:45:23.483Z,5.12
2023-03-05T06:46:23.499Z,5.12
2023-03-05T06:47:23.482Z,5.12
2023-03-05T06:48:23.474Z,5.14
2023-03-05T06:49:23.465Z,5.15
2023-03-05T06:50:23.432Z,5.17
2023-03-05T06:51:23.440Z,5.17
2023-03-05T06:52:23.425Z,5.19
2023-03-05T06:53:23.403Z,5.19
2023-03-05T06:54:23.404Z,5.15
2023-03-05T06:55:23.406Z,5.17
2023-03-05T06:56:23.374Z,5.20
2023-03-05T06:57:23.694Z,5.22
2023-03-05T06:58:24.091Z,5.23
2023-03-05T06:59:23.407Z,5.24
2023-03-05T07:00:23.337Z,5.26
2023-03-05T07:01:23.728Z,5.26
2023-03-05T07:02:23.695Z,5.24
2023-03-05T07:03:23.538Z,5.22
2023-03-05T07:04:23.313Z,5.23
2023-03-05T07:05:23.299Z,5.23
2023-03-05T07:06:23.279Z,5.23
2023-03-05T07:07:23.255Z,5.23
2023-03-05T07:08:23.253Z,5.23
2023-03-05T07:09:23.247Z,5.24
2023-03-05T07:10:23.289Z,5.26
2023-03-05T07:11:23.208Z,5.27
2023-03-05T07:12:23.216Z,5.27
2023-03-05T07:13:23.896Z,5.29
2023-03-05T07:14:23.204Z,5.27
2023-03-05T07:15:23.205Z,5.29
2023-03-05T07:16:23.208Z,5.30
2023-03-05T07:17:23.507Z,5.30
2023-03-05T07:18:23.146Z,5.32
2023-03-05T07:19:23.501Z,5.32
2023-03-05T07:20:23.118Z,5.32
2023-03-05T07:21:23.115Z,5.33
2023-03-05T07:22:23.108Z,5.32
2023-03-05T07:23:23.101Z,5.33
2023-03-05T07:24:23.067Z,5.33
2023-03-05T07:25:23.065Z,5.37
2023-03-05T07:26:23.066Z,5.38
2023-03-05T07:27:23.065Z,5.40
2023-03-05T07:28:23.055Z,5.41
2023-03-05T07:29:23.025Z,5.42
2023-03-05T07:30:23.014Z,5.42
2023-03-05T07:31:23.070Z,5.44
2023-03-05T07:32:23.049Z,5.44
2023-03-05T07:33:23.007Z,5.45
2023-03-05T07:34:23.803Z,5.47
2023-03-05T07:35:23.020Z,5.49
2023-03-05T07:36:22.953Z,5.52
2023-03-05T07:37:22.948Z,5.51
2023-03-05T07:38:22.917Z,5.51
2023-03-05T07:39:22.918Z,5.51
2023-03-05T07:40:23.019Z,5.51
2023-03-05T07:41:22.913Z,5.49
2023-03-05T07:42:22.896Z,5.48
2023-03-05T07:43:22.867Z,5.49
2023-03-05T07:44:22.849Z,5.51
2023-03-05T07:45:22.871Z,5.55
2023-03-05T07:46:23.014Z,5.56
2023-03-05T07:47:22.833Z,5.58
2023-03-05T07:48:22.828Z,5.59
2023-03-05T07:49:22.821Z,5.58
2023-03-05T07:50:22.808Z,5.58
2023-03-05T07:51:22.801Z,5.59
2023-03-05T07:52:22.768Z,5.58
2023-03-05T07:53:22.784Z,5.58
2023-03-05T07:54:22.884Z,5.60
2023-03-05T07:55:22.760Z,5.62
2023-03-05T07:56:22.728Z,5.59
2023-03-05T07:57:22.733Z,5.59
2023-03-05T07:58:22.722Z,5.58
2023-03-05T07:59:22.733Z,5.56
2023-03-05T08:00:22.704Z,5.55
2023-03-05T08:01:22.751Z,5.56
2023-03-05T08:02:22.782Z,5.58
2023-03-05T08:03:22.859Z,5.55
2023-03-05T08:04:22.670Z,5.56
2023-03-05T08:05:22.632Z,5.58
2023-03-05T08:06:22.650Z,5.56
2023-03-05T08:07:22.670Z,5.56
2023-03-05T08:08:22.603Z,5.58
2023-03-05T08:09:22.611Z,5.59
2023-03-05T08:10:22.588Z,5.59
2023-03-05T08:11:22.595Z,5.60
2023-03-05T08:12:22.565Z,5.58
2023-03-05T08:13:22.558Z,5.59
2023-03-05T08:14:22.531Z,5.60
2023-03-05T08:15:22.540Z,5.62
2023-03-05T08:16:22.571Z,5.63
2023-03-05T08:17:22.533Z,5.62
2023-03-05T08:18:22.482Z,5.66
2023-03-05T08:19:22.492Z,5.67
2023-03-05T08:20:22.477Z,5.70
2023-03-05T08:21:22.470Z,5.70
2023-03-05T08:22:22.491Z,5.74
2023-03-05T08:23:22.440Z,5.74
2023-03-05T08:24:22.423Z,5.77
2023-03-05T08:25:22.425Z,5.78
2023-03-05T08:26:22.400Z,5.77
2023-03-05T08:27:22.403Z,5.78
2023-03-05T08:28:22.406Z,5.78
2023-03-05T08:29:22.373Z,5.78
2023-03-05T08:30:22.405Z,5.77
2023-03-05T08:31:22.382Z,5.78
2023-03-05T08:32:22.367Z,5.80
2023-03-05T08:33:22.342Z,5.81
2023-03-05T08:34:22.342Z,5.85
2023-03-05T08:35:22.374Z,5.87
2023-03-05T08:36:22.356Z,5.88
2023-03-05T08:37:22.299Z,5.93
2023-03-05T08:38:22.282Z,5.95
2023-03-05T08:39:22.283Z,5.98
2023-03-05T08:40:22.257Z,5.99
2023-03-05T08:41:22.274Z,6.02
2023-03-05T08:42:22.252Z,6.05
2023-03-05T08:43:22.242Z,6.03
2023-03-05T08:44:22.232Z,6.02
2023-03-05T08:45:22.213Z,6.02
2023-03-05T08:46:22.222Z,6.03
2023-03-05T08:47:22.183Z,6.03
2023-03-05T08:48:22.175Z,6.06
2023-03-05T08:49:22.153Z,6.05
2023-03-05T08:50:22.144Z,6.02
2023-03-05T08:51:22.154Z,6.06
2023-03-05T08:52:22.130Z,6.11
2023-03-05T08:53:22.134Z,6.11
2023-03-05T08:54:22.106Z,6.14
2023-03-05T08:55:22.123Z,6.16
2023-03-05T08:56:22.107Z,6.17
2023-03-05T08:57:22.077Z,6.24
2023-03-05T08:58:23.064Z,6.25
2023-03-05T08:59:22.084Z,6.28
2023-03-05T09:00:22.744Z,6.30
2023-03-05T09:01:22.098Z,6.33
2023-03-05T09:02:22.736Z,6.36
2023-03-05T09:03:22.046Z,6.38
2023-03-05T09:04:23.099Z,6.36
2023-03-05T09:05:22.026Z,6.33
2023-03-05T09:06:22.130Z,6.33
2023-03-05T09:07:22.004Z,6.35
2023-03-05T09:08:22.697Z,6.35
2023-03-05T09:09:21.966Z,6.36
2023-03-05T09:10:21.956Z,6.38
2023-03-05T09:11:21.940Z,6.40
2023-03-05T09:12:21.947Z,6.39
2023-03-05T09:13:21.908Z,6.35
2023-03-05T09:14:21.915Z,6.38
2023-03-05T09:15:21.889Z,6.39
2023-03-05T09:16:21.921Z,6.43
2023-03-05T09:17:21.887Z,6.43
2023-03-05T09:18:21.855Z,6.45
2023-03-05T09:19:21.837Z,6.48
2023-03-05T09:20:21.835Z,6.48
2023-03-05T09:21:21.830Z,6.51
2023-03-05T09:22:21.825Z,6.53
2023-03-05T09:23:21.810Z,6.55
2023-03-05T09:24:21.805Z,6.55
2023-03-05T09:25:21.773Z,6.58
2023-03-05T09:26:21.786Z,6.61
2023-03-05T09:27:21.749Z,6.63
2023-03-05T09:28:21.751Z,6.60
2023-03-05T09:29:21.755Z,6.55
2023-03-05T09:30:21.899Z,6.58
2023-03-05T09:31:21.764Z,6.60
2023-03-05T09:32:21.738Z,6.61
2023-03-05T09:33:21.724Z,6.65
2023-03-05T09:34:21.697Z,6.65
2023-03-05T09:35:21.741Z,6.65
2023-03-05T09:36:21.687Z,6.63
2023-03-05T09:37:21.648Z,6.61
2023-03-05T09:38:21.783Z,6.57
2023-03-05T09:39:21.649Z,6.55
2023-03-05T09:40:21.727Z,6.55
2023-03-05T09:41:21.619Z,6.58
2023-03-05T09:42:21.595Z,6.60
2023-03-05T09:43:21.607Z,6.64
2023-03-05T09:44:21.594Z,6.64
2023-03-05T09:45:21.560Z,6.65
2023-03-05T09:46:21.548Z,6.65
2023-03-05T09:47:21.558Z,6.65
2023-03-05T09:48:21.537Z,6.68
2023-03-05T09:49:21.544Z,6.65
2023-03-05T09:50:21.580Z,6.68
2023-03-05T09:51:21.612Z,6.69
2023-03-05T09:52:21.510Z,6.65
2023-03-05T09:53:21.501Z,6.68
2023-03-05T09:54:21.493Z,6.65
2023-03-05T09:55:21.449Z,6.65
2023-03-05T09:56:21.487Z,6.64
2023-03-05T09:57:21.448Z,6.63
2023-03-05T09:58:21.421Z,6.63
2023-03-05T09:59:21.433Z,6.68
2023-03-05T10:00:21.435Z,6.72
2023-03-05T10:01:21.410Z,6.76
2023-03-05T10:02:21.398Z,6.76
2023-03-05T10:03:21.418Z,6.78
2023-03-05T10:04:21.368Z,6.78
2023-03-05T10:05:21.351Z,6.81
2023-03-05T10:06:21.361Z,6.82
2023-03-05T10:07:21.341Z,6.83
2023-03-05T10:08:21.334Z,6.82
2023-03-05T10:09:21.318Z,6.83
2023-03-05T10:10:21.312Z,6.86
2023-03-05T10:11:21.298Z,6.82
2023-03-05T10:12:21.293Z,6.82
2023-03-05T10:13:21.283Z,6.82
2023-03-05T10:14:21.467Z,6.79
2023-03-05T10:15:21.261Z,6.82
2023-03-05T10:16:21.277Z,6.81
2023-03-05T10:17:21.241Z,6.81
2023-03-05T10:18:21.232Z,6.81
2023-03-05T10:19:21.213Z,6.81
2023-03-05T10:20:21.245Z,6.82
2023-03-05T10:21:21.184Z,6.82
2023-03-05T10:22:21.187Z,6.81
2023-03-05T10:23:21.269Z,6.86
2023-03-05T10:24:22.235Z,6.83
2023-03-05T10:25:21.136Z,6.83
2023-03-05T10:26:21.238Z,6.86
2023-03-05T10:27:21.227Z,6.83
2023-03-05T10:28:21.125Z,6.82
2023-03-05T10:29:21.124Z,6.83
2023-03-05T10:30:21.095Z,6.87
2023-03-05T10:31:21.104Z,6.87
2023-03-05T10:32:21.182Z,6.90
2023-03-05T10:33:21.059Z,6.93
2023-03-05T10:34:21.071Z,6.97
2023-03-05T10:35:21.312Z,6.97
2023-03-05T10:36:21.066Z,6.96
2023-03-05T10:37:21.016Z,6.97
2023-03-05T10:38:21.015Z,6.97
2023-03-05T10:39:21.014Z,6.96
2023-03-05T10:40:20.996Z,6.89
2023-03-05T10:41:20.983Z,6.91
2023-03-05T10:42:20.976Z,6.94
2023-03-05T10:43:20.951Z,6.96
2023-03-05T10:44:20.946Z,6.94
2023-03-05T10:45:20.935Z,6.93
2023-03-05T10:46:21.207Z,6.94
2023-03-05T10:47:20.926Z,6.91
2023-03-05T10:48:23.976Z,6.94
2023-03-05T10:49:21.726Z,6.94
2023-03-05T10:50:20.913Z,7.00
2023-03-05T10:51:21.871Z,7.07
2023-03-05T10:52:21.687Z,7.07
2023-03-05T10:53:23.917Z,7.11
2023-03-05T10:54:20.854Z,7.12
2023-03-05T10:55:20.853Z,7.14
2023-03-05T10:56:20.856Z,7.14
2023-03-05T10:57:20.821Z,7.14
2023-03-05T10:58:21.727Z,7.15
2023-03-05T10:59:20.799Z,7.11
2023-03-05T11:00:20.787Z,7.05
2023-03-05T11:01:20.790Z,7.04
2023-03-05T11:02:20.793Z,6.99
2023-03-05T11:03:20.726Z,6.97
2023-03-05T11:04:20.739Z,6.96
2023-03-05T11:05:20.715Z,6.90
2023-03-05T11:06:20.706Z,6.90
2023-03-05T11:07:20.715Z,6.90
2023-03-05T11:08:20.680Z,6.87
2023-03-05T11:09:20.700Z,6.89
2023-03-05T11:10:20.681Z,6.89
2023-03-05T11:11:20.664Z,6.86
2023-03-05T11:12:20.645Z,6.82
2023-03-05T11:13:20.649Z,6.79
2023-03-05T11:14:20.632Z,6.78
2023-03-05T11:15:20.604Z,6.78
2023-03-05T11:16:21.058Z,6.79
2023-03-05T11:17:20.591Z,6.76
2023-03-05T11:18:20.590Z,6.75
2023-03-05T11:19:20.575Z,6.75
2023-03-05T11:20:20.564Z,6.73
2023-03-05T11:21:20.544Z,6.72
2023-03-05T11:22:20.586Z,6.73
2023-03-05T11:23:20.513Z,6.72
2023-03-05T11:24:20.513Z,6.69
2023-03-05T11:25:20.493Z,6.71
2023-03-05T11:26:20.509Z,6.72
2023-03-05T11:27:20.481Z,6.72
2023-03-05T11:28:32.096Z,6.68
2023-03-05T11:29:21.474Z,6.65
2023-03-05T11:30:20.483Z,6.61
2023-03-05T11:31:20.522Z,6.61
2023-03-05T11:32:20.488Z,6.64
2023-03-05T11:33:20.484Z,6.65
2023-03-05T11:34:20.415Z,6.68
2023-03-05T11:35:20.398Z,6.69
2023-03-05T11:36:20.413Z,6.71
2023-03-05T11:37:20.374Z,6.69
2023-03-05T11:38:20.374Z,6.68
2023-03-05T11:39:20.350Z,6.68
2023-03-05T11:40:20.378Z,6.68
2023-03-05T11:41:20.345Z,6.68
2023-03-05T11:42:20.315Z,6.69
2023-03-05T11:43:20.348Z,6.71
2023-03-05T11:44:20.306Z,6.72
2023-03-05T11:45:20.285Z,6.76
2023-03-05T11:46:20.308Z,6.78
2023-03-05T11:47:20.288Z,6.82
2023-03-05T11:48:20.278Z,6.83
2023-03-05T11:49:20.247Z,6.89
2023-03-05T11:50:20.265Z,6.90
2023-03-05T11:51:20.237Z,6.96
2023-03-05T11:52:20.248Z,6.99
2023-03-05T11:53:20.204Z,7.05
2023-03-05T11:54:20.189Z,7.08
2023-03-05T11:55:20.198Z,7.12
2023-03-05T11:56:20.190Z,7.15
2023-03-05T11:57:20.170Z,7.16
2023-03-05T11:58:20.183Z,7.15
2023-03-05T11:59:20.158Z,7.12
2023-03-05T12:00:20.155Z,7.04
2023-03-05T12:01:20.130Z,7.01
2023-03-05T12:02:20.216Z,6.99
2023-03-05T12:03:20.153Z,6.96
2023-03-05T12:04:20.111Z,6.96
2023-03-05T12:05:20.088Z,6.94
2023-03-05T12:06:20.079Z,6.97
2023-03-05T12:07:20.074Z,6.99
2023-03-05T12:08:20.064Z,6.93
2023-03-05T12:09:20.047Z,6.91
2023-03-05T12:10:20.097Z,6.89
2023-03-05T12:11:20.036Z,6.93
2023-03-05T12:12:20.025Z,6.96
2023-03-05T12:13:19.999Z,6.96
2023-03-05T12:14:20.011Z,6.97
2023-03-05T12:15:19.994Z,6.96
2023-03-05T12:16:20.020Z,6.91
2023-03-05T12:17:19.979Z,6.94
2023-03-05T12:18:19.952Z,6.93
2023-03-05T12:19:19.939Z,6.91
2023-03-05T12:20:19.966Z,6.87
2023-03-05T12:21:19.928Z,6.78
2023-03-05T12:22:19.955Z,6.75
2023-03-05T12:23:19.916Z,6.72
2023-03-05T12:24:19.900Z,6.68
2023-03-05T12:25:19.861Z,6.64
2023-03-05T12:26:19.873Z,6.65
2023-03-05T12:27:19.870Z,6.69
2023-03-05T12:28:19.882Z,6.71
2023-03-05T12:29:19.831Z,6.71
2023-03-05T12:30:19.820Z,6.73
2023-03-05T12:31:19.874Z,6.78
2023-03-05T12:32:19.897Z,6.78
2023-03-05T12:33:19.805Z,6.81
2023-03-05T12:34:19.810Z,6.83
2023-03-05T12:35:19.815Z,6.83
2023-03-05T12:36:19.784Z,6.83
2023-03-05T12:37:19.741Z,6.83
2023-03-05T12:38:26.686Z,6.86
2023-03-05T12:39:20.729Z,6.86
2023-03-05T12:40:19.741Z,6.89
2023-03-05T12:41:19.720Z,6.93
2023-03-05T12:42:19.692Z,6.97
2023-03-05T12:43:19.690Z,6.94
2023-03-05T12:44:19.682Z,6.94
2023-03-05T12:45:19.692Z,6.93
2023-03-05T12:46:19.725Z,6.91
2023-03-05T12:47:19.662Z,6.90
2023-03-05T12:48:19.659Z,6.93
2023-03-05T12:49:19.631Z,6.94
2023-03-05T12:50:19.623Z,6.96
2023-03-05T12:51:19.594Z,6.99
2023-03-05T12:52:19.600Z,7.00
2023-03-05T12:53:19.595Z,7.05
2023-03-05T12:54:19.584Z,7.07
2023-03-05T12:55:19.573Z,7.09
2023-03-05T12:56:19.554Z,7.14
2023-03-05T12:57:19.560Z,7.14
2023-03-05T12:58:19.537Z,7.12
2023-03-05T12:59:19.525Z,7.15
2023-03-05T13:00:19.511Z,7.14
2023-03-05T13:01:19.505Z,7.14
2023-03-05T13:02:19.482Z,7.16
2023-03-05T13:03:19.531Z,7.18
2023-03-05T13:04:19.481Z,7.16
2023-03-05T13:05:19.463Z,7.18
2023-03-05T13:06:19.451Z,7.21
2023-03-05T13:07:19.430Z,7.26
2023-03-05T13:08:19.439Z,7.32
2023-03-05T13:09:19.410Z,7.34
2023-03-05T13:10:19.391Z,7.36
2023-03-05T13:11:19.411Z,7.34
2023-03-05T13:12:19.397Z,7.36
2023-03-05T13:13:20.658Z,7.37
2023-03-05T13:14:19.367Z,7.39
2023-03-05T13:15:19.343Z,7.39
2023-03-05T13:16:19.391Z,7.39
2023-03-05T13:17:19.321Z,7.39
2023-03-05T13:18:19.295Z,7.36